createdAt,value
2022-08-28T00:00:20.817Z,53.25
2022-08-28T00:02:48.054Z,51.08
2022-08-28T00:05:17.177Z,50.13
2022-08-28T00:07:47.679Z,51.75
2022-08-28T00:10:16.759Z,45.83
2022-08-28T00:12:44.352Z,46.08
2022-08-28T00:15:15.637Z,44.97
2022-08-28T00:17:42.556Z,48.63
2022-08-28T00:20:11.823Z,42.28
2022-08-28T00:22:39.881Z,43.17
2022-08-28T00:25:07.788Z,38.33
2022-08-28T00:27:52.488Z,42.50
2022-08-28T00:30:26.384Z,40.35
2022-08-28T00:32:54.778Z,39.83
2022-08-28T00:35:23.643Z,37.72
2022-08-28T00:37:50.621Z,38.72
2022-08-28T00:40:32.346Z,36.67
2022-08-28T00:45:27.553Z,35.35
2022-08-28T00:47:54.309Z,37.80
2022-08-28T00:50:24.305Z,35.88
2022-08-28T00:52:55.301Z,39.28
2022-08-28T00:55:25.085Z,38.45
2022-08-28T00:57:54.860Z,37.67
2022-08-28T01:00:32.859Z,39.70
2022-08-28T01:02:59.863Z,41.35
2022-08-28T01:05:28.694Z,35.20
2022-08-28T01:07:58.627Z,37.22
2022-08-28T01:10:28.120Z,38.80
2022-08-28T01:12:56.896Z,38.92
2022-08-28T01:15:28.247Z,37.97
2022-08-28T01:17:59.564Z,41.30
2022-08-28T01:20:31.003Z,41.80
2022-08-28T01:23:19.429Z,35.95
2022-08-28T01:25:46.036Z,40.22
2022-08-28T01:28:14.203Z,41.45
2022-08-28T01:30:42.898Z,39.33
2022-08-28T01:33:09.404Z,40.83
2022-08-28T01:35:42.527Z,41.42
2022-08-28T01:38:09.151Z,32.67
2022-08-28T01:40:40.007Z,34.97
2022-08-28T01:43:36.535Z,39.97
2022-08-28T01:46:05.838Z,39.85
2022-08-28T01:48:37.173Z,45.83
2022-08-28T01:51:05.320Z,39.92
2022-08-28T01:53:33.202Z,38.35
2022-08-28T01:56:02.509Z,45.92
2022-08-28T01:58:32.983Z,39.80
2022-08-28T02:01:02.628Z,40.25
2022-08-28T02:03:29.248Z,44.58
2022-08-28T02:05:55.709Z,43.85
2022-08-28T02:08:22.275Z,45.63
2022-08-28T02:10:49.272Z,51.33
2022-08-28T02:13:15.877Z,49.70
2022-08-28T02:15:44.311Z,47.63
2022-08-28T02:18:11.006Z,50.13
2022-08-28T02:20:37.795Z,49.60
2022-08-28T02:23:04.674Z,49.17
2022-08-28T02:25:31.175Z,43.65
2022-08-28T02:27:57.733Z,44.83
2022-08-28T02:30:24.817Z,42.00
2022-08-28T02:32:52.032Z,49.42
2022-08-28T02:35:19.768Z,53.33
2022-08-28T02:37:47.661Z,50.35
2022-08-28T02:40:16.307Z,49.63
2022-08-28T02:42:43.238Z,52.40
2022-08-28T02:45:11.648Z,46.20
2022-08-28T02:47:42.735Z,55.45
2022-08-28T02:50:12.924Z,49.08
2022-08-28T02:52:40.512Z,48.20
2022-08-28T02:55:08.701Z,55.88
2022-08-28T02:57:35.283Z,48.88
2022-08-28T03:00:05.392Z,59.95
2022-08-28T03:02:31.919Z,56.13
2022-08-28T03:04:59.753Z,56.75
2022-08-28T03:07:29.316Z,44.45
2022-08-28T03:09:56.217Z,45.05
2022-08-28T03:12:24.288Z,51.13
2022-08-28T03:14:54.760Z,55.60
2022-08-28T03:17:22.106Z,59.15
2022-08-28T03:19:50.129Z,53.80
2022-08-28T03:22:38.514Z,54.83
2022-08-28T03:25:06.324Z,57.05
2022-08-28T03:27:33.065Z,50.35
2022-08-28T03:29:59.806Z,54.40
2022-08-28T03:32:26.800Z,54.75
2022-08-28T03:34:55.852Z,50.03
2022-08-28T03:37:22.318Z,47.15
2022-08-28T03:39:49.196Z,49.53
2022-08-28T03:42:15.805Z,43.67
2022-08-28T03:44:42.313Z,43.85
2022-08-28T03:47:09.033Z,44.35
2022-08-28T03:49:35.506Z,42.28
2022-08-28T03:52:02.570Z,42.08
2022-08-28T03:54:31.671Z,40.65
2022-08-28T03:56:58.379Z,41.50
2022-08-28T03:59:26.225Z,44.38
2022-08-28T04:01:59.063Z,43.10
2022-08-28T04:04:25.550Z,40.10
2022-08-28T04:06:51.984Z,42.13
2022-08-28T04:09:18.485Z,41.13
2022-08-28T04:11:44.974Z,37.28
2022-08-28T04:14:11.624Z,35.33
2022-08-28T04:16:38.487Z,42.65
2022-08-28T04:19:05.122Z,37.58
2022-08-28T04:21:31.630Z,37.17
2022-08-28T04:23:58.116Z,35.13
2022-08-28T04:26:26.749Z,41.72
2022-08-28T04:28:55.121Z,36.25
2022-08-28T04:31:31.805Z,38.42
2022-08-28T04:34:04.964Z,36.58
2022-08-28T04:36:32.629Z,39.97
2022-08-28T04:38:59.744Z,40.40
2022-08-28T04:41:26.664Z,37.90
2022-08-28T04:43:53.721Z,33.03
2022-08-28T04:46:20.481Z,36.63
2022-08-28T04:48:47.069Z,35.90
2022-08-28T04:51:17.177Z,32.13
2022-08-28T04:53:43.847Z,31.83
2022-08-28T04:56:12.976Z,29.23
2022-08-28T04:58:41.612Z,30.63
2022-08-28T05:01:12.702Z,25.90
2022-08-28T05:03:39.985Z,23.83
2022-08-28T05:06:07.149Z,27.73
2022-08-28T05:08:33.881Z,24.65
2022-08-28T05:11:33.837Z,26.83
2022-08-28T05:14:04.143Z,30.48
2022-08-28T05:16:30.806Z,30.30
2022-08-28T05:19:00.833Z,28.50
2022-08-28T05:21:28.150Z,34.70
2022-08-28T05:23:57.305Z,28.30
2022-08-28T05:26:27.109Z,28.73
2022-08-28T05:28:56.444Z,28.77
2022-08-28T05:31:24.876Z,26.98
2022-08-28T05:33:52.787Z,26.48
2022-08-28T05:36:22.041Z,22.88
2022-08-28T05:38:49.707Z,23.02
2022-08-28T05:41:21.780Z,22.50
2022-08-28T05:43:49.681Z,26.05
2022-08-28T05:46:17.229Z,22.23
2022-08-28T05:48:45.531Z,27.63
2022-08-28T05:51:14.521Z,22.77
2022-08-28T05:53:43.679Z,23.35
2022-08-28T05:56:19.813Z,21.77
2022-08-28T05:58:46.555Z,33.17
2022-08-28T06:01:17.359Z,25.00
2022-08-28T06:03:47.400Z,22.83
2022-08-28T06:06:13.945Z,25.35
2022-08-28T06:08:58.499Z,23.63
2022-08-28T06:11:30.318Z,26.65
2022-08-28T06:14:02.870Z,27.52
2022-08-28T06:16:31.910Z,23.67
2022-08-28T06:18:59.140Z,25.35
2022-08-28T06:21:25.952Z,25.33
2022-08-28T06:23:52.486Z,23.02
2022-08-28T06:26:19.067Z,20.20
2022-08-28T06:28:45.836Z,23.38
2022-08-28T06:31:24.627Z,24.92
2022-08-28T06:33:54.742Z,23.08
2022-08-28T06:36:22.010Z,23.55
2022-08-28T06:38:48.468Z,24.20
2022-08-28T06:41:18.328Z,25.48
2022-08-28T06:43:44.826Z,25.75
2022-08-28T06:46:11.384Z,28.17
2022-08-28T06:48:38.116Z,21.23
2022-08-28T06:51:10.075Z,25.65
2022-08-28T06:53:38.257Z,22.75
2022-08-28T06:56:09.153Z,24.90
2022-08-28T06:58:40.608Z,21.48
2022-08-28T07:03:37.786Z,21.92
2022-08-28T07:06:13.550Z,21.77
2022-08-28T07:08:41.580Z,27.92
2022-08-28T07:11:13.840Z,24.42
2022-08-28T07:13:44.904Z,22.13
2022-08-28T07:16:14.118Z,22.98
2022-08-28T07:18:41.337Z,22.88
2022-08-28T07:21:12.253Z,20.20
2022-08-28T07:23:40.760Z,21.13
2022-08-28T07:26:10.340Z,19.05
2022-08-28T07:28:37.639Z,18.25
2022-08-28T07:31:13.174Z,21.95
2022-08-28T07:33:40.568Z,21.10
2022-08-28T07:36:16.006Z,17.08
2022-08-28T07:38:57.107Z,17.50
2022-08-28T07:41:26.628Z,17.60
2022-08-28T07:44:11.889Z,15.93
2022-08-28T07:46:39.405Z,18.05
2022-08-28T07:49:08.588Z,17.77
2022-08-28T07:51:35.561Z,18.90
2022-08-28T07:54:03.891Z,18.38
2022-08-28T07:56:31.012Z,15.50
2022-08-28T07:58:58.940Z,17.40
2022-08-28T08:01:27.512Z,20.45
2022-08-28T08:04:01.623Z,19.63
2022-08-28T08:06:34.136Z,14.50
2022-08-28T08:09:02.522Z,16.35
2022-08-28T08:11:32.542Z,17.63
2022-08-28T08:14:04.880Z,14.07
2022-08-28T08:16:41.448Z,18.17
2022-08-28T08:19:09.909Z,20.60
2022-08-28T08:21:37.675Z,14.50
2022-08-28T08:24:05.055Z,12.60
2022-08-28T08:26:32.468Z,13.73
2022-08-28T08:28:59.483Z,17.25
2022-08-28T08:31:29.456Z,14.48
2022-08-28T08:33:58.535Z,14.73
2022-08-28T08:36:27.062Z,15.38
2022-08-28T08:38:59.897Z,16.15
2022-08-28T08:41:33.325Z,14.80
2022-08-28T08:44:15.933Z,16.10
2022-08-28T08:46:49.424Z,12.80
2022-08-28T08:49:22.582Z,14.60
2022-08-28T08:52:02.812Z,13.82
2022-08-28T08:54:29.308Z,14.95
2022-08-28T08:56:56.261Z,14.07
2022-08-28T08:59:30.125Z,14.95
2022-08-28T09:02:17.245Z,13.52
2022-08-28T09:05:04.638Z,15.25
2022-08-28T09:07:39.962Z,16.67
2022-08-28T09:10:15.500Z,16.20
2022-08-28T09:12:52.911Z,13.70
2022-08-28T09:15:38.741Z,14.57
2022-08-28T09:18:28.082Z,14.73
2022-08-28T09:20:58.313Z,14.10
2022-08-28T09:23:26.748Z,12.32
2022-08-28T09:26:02.458Z,18.50
2022-08-28T09:28:37.159Z,13.23
2022-08-28T09:31:06.416Z,15.00
2022-08-28T09:33:44.877Z,16.08
2022-08-28T09:36:29.369Z,12.23
2022-08-28T09:39:08.737Z,12.32
2022-08-28T09:41:56.890Z,15.05
2022-08-28T09:44:23.381Z,12.18
2022-08-28T09:46:52.168Z,14.98
2022-08-28T09:49:28.532Z,11.82
2022-08-28T09:51:59.461Z,11.25
2022-08-28T09:54:35.766Z,12.50
2022-08-28T09:57:03.538Z,14.95
2022-08-28T09:59:30.281Z,16.65
2022-08-28T10:02:13.063Z,15.18
2022-08-28T10:05:03.228Z,11.38
2022-08-28T10:07:48.621Z,14.32
2022-08-28T10:10:20.978Z,9.02
2022-08-28T10:13:30.404Z,12.50
2022-08-28T10:16:15.219Z,10.02
2022-08-28T10:19:04.928Z,11.73
2022-08-28T10:21:49.234Z,12.55
2022-08-28T10:24:28.430Z,10.25
2022-08-28T10:27:11.615Z,10.05
2022-08-28T10:29:51.090Z,9.55
2022-08-28T10:32:33.665Z,9.15
2022-08-28T10:35:08.823Z,11.77
2022-08-28T10:38:02.908Z,11.52
2022-08-28T10:40:36.293Z,9.82
2022-08-28T10:43:20.908Z,11.50
2022-08-28T10:45:51.492Z,12.65
2022-08-28T10:48:29.233Z,9.55
2022-08-28T10:51:11.623Z,9.18
2022-08-28T10:53:44.461Z,11.63
2022-08-28T10:56:17.344Z,10.75
2022-08-28T10:58:48.625Z,11.70
2022-08-28T11:03:51.156Z,8.57
2022-08-28T11:06:30.582Z,9.15
2022-08-28T11:08:59.838Z,6.88
2022-08-28T11:11:43.989Z,12.20
2022-08-28T11:14:23.924Z,8.75
2022-08-28T11:16:51.357Z,8.98
2022-08-28T11:19:24.244Z,7.28
2022-08-28T11:22:20.379Z,10.10
2022-08-28T11:24:59.320Z,11.50
2022-08-28T11:27:33.669Z,10.77
2022-08-28T11:30:26.401Z,8.88
2022-08-28T11:32:52.909Z,10.05
2022-08-28T11:35:42.954Z,8.60
2022-08-28T11:38:10.227Z,9.45
2022-08-28T11:40:53.051Z,9.15
2022-08-28T11:43:22.218Z,7.88
2022-08-28T11:45:54.869Z,8.98
2022-08-28T11:48:33.513Z,8.52
2022-08-28T11:51:04.616Z,9.20
2022-08-28T11:53:49.681Z,8.75
2022-08-28T11:56:38.184Z,9.35
2022-08-28T11:59:10.753Z,10.20
2022-08-28T12:01:37.936Z,8.05
2022-08-28T12:04:17.506Z,8.95
2022-08-28T12:06:49.406Z,7.18
2022-08-28T12:09:45.557Z,6.88
2022-08-28T12:12:20.910Z,7.65
2022-08-28T12:14:47.312Z,9.10
2022-08-28T12:17:16.780Z,7.07
2022-08-28T12:20:09.817Z,6.10
2022-08-28T12:22:52.824Z,6.43
2022-08-28T12:25:35.910Z,7.72
2022-08-28T12:28:17.125Z,8.48
2022-08-28T12:30:57.512Z,6.55
2022-08-28T12:33:34.240Z,7.80
2022-08-28T12:36:03.212Z,5.82
2022-08-28T12:38:32.768Z,8.07
2022-08-28T12:40:59.650Z,7.65
2022-08-28T12:43:43.267Z,6.40
2022-08-28T12:46:19.588Z,8.80
2022-08-28T12:48:52.564Z,9.98
2022-08-28T12:51:27.045Z,8.07
2022-08-28T12:53:57.419Z,6.55
2022-08-28T12:56:25.991Z,7.00
2022-08-28T12:58:52.858Z,7.65
2022-08-28T13:01:33.818Z,6.05
2022-08-28T13:04:18.409Z,8.70
2022-08-28T13:06:45.184Z,6.97
2022-08-28T13:09:20.922Z,6.72
2022-08-28T13:11:50.272Z,7.70
2022-08-28T13:14:46.073Z,6.97
2022-08-28T13:17:14.778Z,6.78
2022-08-28T13:19:41.473Z,8.63
2022-08-28T13:22:29.392Z,7.30
2022-08-28T13:25:00.712Z,7.07
2022-08-28T13:27:27.525Z,8.90
2022-08-28T13:30:19.918Z,8.45
2022-08-28T13:33:00.188Z,8.88
2022-08-28T13:35:26.618Z,7.72
2022-08-28T13:37:54.553Z,7.72
2022-08-28T13:43:15.320Z,5.97
2022-08-28T13:45:46.174Z,6.93
2022-08-28T13:48:14.539Z,6.75
2022-08-28T13:50:46.483Z,6.47
2022-08-28T13:53:14.442Z,10.15
2022-08-28T13:55:41.057Z,5.18
2022-08-28T13:58:07.566Z,6.13
2022-08-28T14:00:40.100Z,9.00
2022-08-28T14:03:25.105Z,7.68
2022-08-28T14:05:51.593Z,7.05
2022-08-28T14:08:18.060Z,9.38
2022-08-28T14:10:44.558Z,7.35
2022-08-28T14:13:10.997Z,8.27
2022-08-28T14:15:37.708Z,6.38
2022-08-28T14:18:05.301Z,7.13
2022-08-28T14:20:32.252Z,7.90
2022-08-28T14:22:58.833Z,9.52
2022-08-28T14:25:25.692Z,5.75
2022-08-28T14:27:52.269Z,5.93
2022-08-28T14:30:19.764Z,6.85
2022-08-28T14:32:46.385Z,8.65
2022-08-28T14:35:13.033Z,5.80
2022-08-28T14:37:39.640Z,6.32
2022-08-28T14:40:06.822Z,6.60
2022-08-28T14:42:33.316Z,5.22
2022-08-28T14:44:59.805Z,7.28
2022-08-28T14:47:26.397Z,6.40
2022-08-28T14:49:52.927Z,7.10
2022-08-28T14:52:19.513Z,6.35
2022-08-28T14:54:46.310Z,5.15
2022-08-28T14:57:13.538Z,5.72
2022-08-28T14:59:40.076Z,5.50
2022-08-28T15:02:06.611Z,5.22
2022-08-28T15:04:37.834Z,6.80
2022-08-28T15:07:10.551Z,4.85
2022-08-28T15:09:39.936Z,7.63
2022-08-28T15:12:07.118Z,5.05
2022-08-28T15:14:34.433Z,5.30
2022-08-28T15:17:01.082Z,6.22
2022-08-28T15:19:28.104Z,9.20
2022-08-28T15:21:55.883Z,5.07
2022-08-28T15:24:25.429Z,4.97
2022-08-28T15:26:52.231Z,5.85
2022-08-28T15:29:18.835Z,6.30
2022-08-28T15:31:48.906Z,5.45
2022-08-28T15:34:21.319Z,4.67
2022-08-28T15:36:55.645Z,5.50
2022-08-28T15:39:42.625Z,6.30
2022-08-28T15:42:10.221Z,5.63
2022-08-28T15:44:37.306Z,4.95
2022-08-28T15:47:04.955Z,5.22
2022-08-28T15:49:36.111Z,7.22
2022-08-28T15:52:10.755Z,7.50
2022-08-28T15:54:37.460Z,7.82
2022-08-28T15:57:04.111Z,4.95
2022-08-28T15:59:49.034Z,6.78
2022-08-28T16:02:21.807Z,5.22
2022-08-28T16:04:48.879Z,6.10
2022-08-28T16:07:16.443Z,6.10
2022-08-28T16:09:43.017Z,6.93
2022-08-28T16:12:09.524Z,5.45
2022-08-28T16:14:36.321Z,5.97
2022-08-28T16:17:05.689Z,5.22
2022-08-28T16:19:37.508Z,5.28
2022-08-28T16:22:04.217Z,5.88
2022-08-28T16:24:30.842Z,5.32
2022-08-28T16:26:57.328Z,5.70
2022-08-28T16:29:23.758Z,6.70
2022-08-28T16:31:50.473Z,5.70
2022-08-28T16:34:19.510Z,5.60
2022-08-28T16:36:50.066Z,5.45
2022-08-28T16:39:16.567Z,6.05
2022-08-28T16:41:46.223Z,6.40
2022-08-28T16:44:12.704Z,9.13
2022-08-28T16:46:39.208Z,5.65
2022-08-28T16:49:05.717Z,5.82
2022-08-28T16:51:32.193Z,6.05
2022-08-28T16:53:58.752Z,6.28
2022-08-28T16:56:26.446Z,5.60
2022-08-28T16:58:53.361Z,7.60
2022-08-28T17:01:23.959Z,6.75
2022-08-28T17:06:23.353Z,6.22
2022-08-28T17:08:55.925Z,7.90
2022-08-28T17:11:27.070Z,6.20
2022-08-28T17:13:54.425Z,5.60
2022-08-28T17:16:23.537Z,7.38
2022-08-28T17:18:52.183Z,7.53
2022-08-28T17:21:39.392Z,7.90
2022-08-28T17:24:06.742Z,5.45
2022-08-28T17:26:33.353Z,7.63
2022-08-28T17:28:59.822Z,7.25
2022-08-28T17:31:26.327Z,6.53
2022-08-28T17:33:52.858Z,6.13
2022-08-28T17:36:32.576Z,8.68
2022-08-28T17:39:02.013Z,7.38
2022-08-28T17:41:28.503Z,7.43
2022-08-28T17:43:55.015Z,6.68
2022-08-28T17:46:21.595Z,6.20
2022-08-28T17:48:54.330Z,6.47
2022-08-28T17:51:33.173Z,6.35
2022-08-28T17:54:08.652Z,7.55
2022-08-28T17:56:36.164Z,6.40
2022-08-28T17:59:02.941Z,7.90
2022-08-28T18:01:29.505Z,6.57
2022-08-28T18:03:56.005Z,6.72
2022-08-28T18:06:22.737Z,7.55
2022-08-28T18:08:51.707Z,6.18
2022-08-28T18:11:19.134Z,6.72
2022-08-28T18:13:46.257Z,13.90
2022-08-28T18:16:12.928Z,8.20
2022-08-28T18:18:39.576Z,7.57
2022-08-28T18:21:06.113Z,9.60
2022-08-28T18:23:32.664Z,9.75
2022-08-28T18:25:59.162Z,11.80
2022-08-28T18:28:26.586Z,8.13
2022-08-28T18:30:53.755Z,8.57
2022-08-28T18:33:22.883Z,9.38
2022-08-28T18:35:50.572Z,7.97
2022-08-28T18:38:22.541Z,7.45
2022-08-28T18:40:49.280Z,10.23
2022-08-28T18:43:17.649Z,9.30
2022-08-28T18:45:44.213Z,10.13
2022-08-28T18:48:10.841Z,8.48
2022-08-28T18:50:37.910Z,8.93
2022-08-28T18:53:05.160Z,10.15
2022-08-28T18:55:33.060Z,7.38
2022-08-28T18:58:01.067Z,7.60
2022-08-28T19:00:27.760Z,9.73
2022-08-28T19:02:54.661Z,9.20
2022-08-28T19:05:21.472Z,8.45
2022-08-28T19:07:49.140Z,9.90
2022-08-28T19:10:32.853Z,11.45
2022-08-28T19:13:01.108Z,7.57
2022-08-28T19:15:28.281Z,8.88
2022-08-28T19:17:55.118Z,10.63
2022-08-28T19:20:21.806Z,7.22
2022-08-28T19:22:48.749Z,7.10
2022-08-28T19:25:28.148Z,12.52
2022-08-28T19:27:56.276Z,9.23
2022-08-28T19:30:25.532Z,10.60
2022-08-28T19:32:51.988Z,7.85
2022-08-28T19:35:18.944Z,9.65
2022-08-28T19:37:46.062Z,9.10
2022-08-28T19:40:13.168Z,8.65
2022-08-28T19:42:41.344Z,8.52
2022-08-28T19:45:12.383Z,10.30
2022-08-28T19:47:40.012Z,9.15
2022-08-28T19:50:09.525Z,9.13
2022-08-28T19:52:36.599Z,9.30
2022-08-28T19:55:05.624Z,9.00
2022-08-28T19:57:33.184Z,8.63
2022-08-28T20:00:00.193Z,10.05
2022-08-28T20:02:27.462Z,9.65
2022-08-28T20:04:54.449Z,11.60
2022-08-28T20:07:21.110Z,12.57
2022-08-28T20:09:47.655Z,8.80
2022-08-28T20:12:14.575Z,9.55
2022-08-28T20:14:42.468Z,8.00
2022-08-28T20:17:09.249Z,11.15
2022-08-28T20:19:35.918Z,7.78
2022-08-28T20:22:03.745Z,7.88
2022-08-28T20:24:30.366Z,7.97
2022-08-28T20:26:56.913Z,9.90
2022-08-28T20:29:24.118Z,11.13
2022-08-28T20:31:50.817Z,9.18
2022-08-28T20:34:18.817Z,10.73
2022-08-28T20:36:45.959Z,8.18
2022-08-28T20:39:12.478Z,8.63
2022-08-28T20:41:40.958Z,14.18
2022-08-28T20:44:10.357Z,8.50
2022-08-28T20:46:41.289Z,9.05
2022-08-28T20:49:11.944Z,9.20
2022-08-28T20:51:52.685Z,12.27
2022-08-28T20:54:21.417Z,9.43
2022-08-28T20:56:48.798Z,12.35
2022-08-28T20:59:15.364Z,10.50
2022-08-28T21:01:41.933Z,9.57
2022-08-28T21:04:08.522Z,13.15
2022-08-28T21:06:35.145Z,11.40
2022-08-28T21:09:01.879Z,11.05
2022-08-28T21:11:29.328Z,12.15
2022-08-28T21:13:55.850Z,9.52
2022-08-28T21:16:22.423Z,10.45
2022-08-28T21:19:05.393Z,9.98
2022-08-28T21:21:36.260Z,9.38
2022-08-28T21:24:05.513Z,11.35
2022-08-28T21:26:32.347Z,10.30
2022-08-28T21:28:58.977Z,9.23
2022-08-28T21:31:25.717Z,7.85
2022-08-28T21:33:52.257Z,11.18
2022-08-28T21:36:18.985Z,8.98
2022-08-28T21:38:45.468Z,9.10
2022-08-28T21:41:13.994Z,9.65
2022-08-28T21:43:43.041Z,10.52
2022-08-28T21:46:11.695Z,10.07
2022-08-28T21:48:38.714Z,10.95
2022-08-28T21:51:11.421Z,10.18
2022-08-28T21:53:39.376Z,11.77
2022-08-28T21:56:07.345Z,10.00
2022-08-28T21:58:35.711Z,10.43
2022-08-28T22:01:02.478Z,7.75
2022-08-28T22:03:29.618Z,8.88
2022-08-28T22:05:56.806Z,10.45
2022-08-28T22:08:28.504Z,10.18
2022-08-28T22:10:56.485Z,9.13
2022-08-28T22:13:23.273Z,10.10
2022-08-28T22:15:50.148Z,8.65
2022-08-28T22:18:16.722Z,7.90
2022-08-28T22:21:04.289Z,14.00
2022-08-28T22:23:37.073Z,8.77
2022-08-28T22:26:06.597Z,7.68
2022-08-28T22:28:33.306Z,9.75
2022-08-28T22:31:00.413Z,10.05
2022-08-28T22:33:27.049Z,8.38
2022-08-28T22:35:54.252Z,9.93
2022-08-28T22:38:22.617Z,7.57
2022-08-28T22:40:49.482Z,8.50
2022-08-28T22:43:17.106Z,9.90
2022-08-28T22:45:46.295Z,8.07
2022-08-28T22:48:17.288Z,9.15
2022-08-28T22:50:45.521Z,11.02
2022-08-28T22:53:12.224Z,9.70
2022-08-28T22:55:43.210Z,8.80
2022-08-28T22:58:11.075Z,11.13
2022-08-28T23:00:38.608Z,8.70
2022-08-28T23:03:05.176Z,9.50
2022-08-28T23:05:31.845Z,8.50
2022-08-28T23:07:58.666Z,9.03
2022-08-28T23:10:42.058Z,9.15
2022-08-28T23:13:09.010Z,9.40
2022-08-28T23:15:41.065Z,8.70
2022-08-28T23:18:07.586Z,7.68
2022-08-28T23:20:34.801Z,10.00
2022-08-28T23:23:01.819Z,8.50
2022-08-28T23:25:28.401Z,7.25
2022-08-28T23:27:55.888Z,9.90
2022-08-28T23:30:23.093Z,9.88
2022-08-28T23:32:49.572Z,8.02
2022-08-28T23:35:17.440Z,8.70
2022-08-28T23:37:48.535Z,9.32
2022-08-28T23:42:46.978Z,8.85
2022-08-28T23:45:17.046Z,8.52
2022-08-28T23:47:44.220Z,8.23
2022-08-28T23:50:15.464Z,9.18
2022-08-28T23:52:43.161Z,9.32
2022-08-28T23:55:11.732Z,8.95
2022-08-28T23:57:38.405Z,9.63
